Senia, North Carolina
Current Conditions -  °F | °C
As of 11:35 AM on Tuesday 21 Oct 2014 (Local Time) from KTNB Reporting Station
Scattered Clouds Scattered Clouds  
Wind Chill: 52°   Ceiling: Unl
Heat Index: 52°   Visibility: 10mi
Dew Point: 42°   Wind: 10mph
Humidity: 68%   Direction: 310°NW
Pressure: 29.99"   Gusts: 16mph
Location:  36.0227°N, 81.9499°W
Report Text: KTNB 211535Z AUTO 31009G14KT 280V340 10SM SCT025 SCT043 11/05 A2999 RMK AO2 T01110054
Loading
Personal Weather Stations






























Interactive Weather Map
Tropical Storm Tracking
New forecast layout! Learn more

10-Day Weather Forecast

Advertisements
Track Severe Weather on mobile